Terminal Aerodrome Forecast
Issued by NWS Raleigh/Durham, NC

Current Version | Previous Version | Text Only | Print | Product List | Glossary On
Versions: 1 2 3 4 5 6 7 8 9 10 11 12 13
000
FTUS42 KRAH 250524
TAFFAY
TAF
KFAY 250524Z 2506/2606 00000KT P6SM SKC
     FM251500 24007KT P6SM FEW200
     FM252300 24005KT P6SM BKN110
     FM260100 VRB04KT P6SM SCT090=

USA.gov is the U.S. government's official web portal to all federal, state and local government web resources and services.